sensor_id;sensor_type;location;lat;lon;timestamp;pressure;altitude;pressure_sealevel;temperature;humidity
45523;BME280;31254;51.680;5.394;2022-11-23T00:01:17;99579.03;;;8.92;95.60
45523;BME280;31254;51.680;5.394;2022-11-23T00:03:46;99578.00;;;8.93;95.58
45523;BME280;31254;51.680;5.394;2022-11-23T00:06:13;99577.50;;;8.90;95.93
45523;BME280;31254;51.680;5.394;2022-11-23T00:08:40;99584.47;;;8.92;95.63
45523;BME280;31254;51.680;5.394;2022-11-23T00:11:07;99584.47;;;8.92;95.76
45523;BME280;31254;51.680;5.394;2022-11-23T00:13:34;99568.84;;;8.86;96.14
45523;BME280;31254;51.680;5.394;2022-11-23T00:16:04;99589.72;;;8.94;96.10
45523;BME280;31254;51.680;5.394;2022-11-23T00:18:31;99583.44;;;8.93;96.09
45523;BME280;31254;51.680;5.394;2022-11-23T00:20:57;99581.06;;;8.90;96.09
45523;BME280;31254;51.680;5.394;2022-11-23T00:23:24;99589.91;;;8.92;96.17
45523;BME280;31254;51.680;5.394;2022-11-23T00:25:50;99581.56;;;8.94;95.70
45523;BME280;31254;51.680;5.394;2022-11-23T00:28:19;99594.00;;;8.96;96.25
45523;BME280;31254;51.680;5.394;2022-11-23T00:30:49;99586.34;;;8.92;96.13
45523;BME280;31254;51.680;5.394;2022-11-23T00:33:16;99560.53;;;8.80;96.00
45523;BME280;31254;51.680;5.394;2022-11-23T00:35:43;99590.78;;;8.93;96.20
45523;BME280;31254;51.680;5.394;2022-11-23T00:38:10;99600.44;;;8.95;96.22
45523;BME280;31254;51.680;5.394;2022-11-23T00:40:39;99601.31;;;8.96;96.23
45523;BME280;31254;51.680;5.394;2022-11-23T00:43:05;99604.03;;;8.96;96.34
45523;BME280;31254;51.680;5.394;2022-11-23T00:45:32;99610.31;;;8.96;95.93
45523;BME280;31254;51.680;5.394;2022-11-23T00:47:58;99612.19;;;8.96;96.49
45523;BME280;31254;51.680;5.394;2022-11-23T00:50:25;99606.06;;;8.94;96.50
45523;BME280;31254;51.680;5.394;2022-11-23T00:52:54;99608.94;;;8.92;96.14
45523;BME280;31254;51.680;5.394;2022-11-23T00:55:20;99596.03;;;8.86;96.22
45523;BME280;31254;51.680;5.394;2022-11-23T00:57:47;99600.97;;;8.91;96.43
45523;BME280;31254;51.680;5.394;2022-11-23T01:00:15;99596.88;;;8.87;96.44
45523;BME280;31254;51.680;5.394;2022-11-23T01:02:41;99614.59;;;8.91;96.63
45523;BME280;31254;51.680;5.394;2022-11-23T01:05:08;99605.03;;;8.87;96.30
45523;BME280;31254;51.680;5.394;2022-11-23T01:07:35;99608.09;;;8.92;96.50
45523;BME280;31254;51.680;5.394;2022-11-23T01:10:02;99596.56;;;8.82;96.34
45523;BME280;31254;51.680;5.394;2022-11-23T01:12:28;99618.97;;;8.92;96.76
45523;BME280;31254;51.680;5.394;2022-11-23T01:14:55;99605.03;;;8.87;96.29
45523;BME280;31254;51.680;5.394;2022-11-23T01:17:22;99610.81;;;8.92;96.37
45523;BME280;31254;51.680;5.394;2022-11-23T01:19:48;99622.22;;;8.95;96.03
45523;BME280;31254;51.680;5.394;2022-11-23T01:22:17;99600.44;;;8.87;96.52
45523;BME280;31254;51.680;5.394;2022-11-23T01:24:45;99615.94;;;8.95;96.50
45523;BME280;31254;51.680;5.394;2022-11-23T01:27:14;99612.38;;;8.94;96.23
45523;BME280;31254;51.680;5.394;2022-11-23T01:29:41;99621.53;;;8.93;96.52
45523;BME280;31254;51.680;5.394;2022-11-23T01:32:07;99609.47;;;8.88;96.38
45523;BME280;31254;51.680;5.394;2022-11-23T01:34:34;99595.00;;;8.63;96.75
45523;BME280;31254;51.680;5.394;2022-11-23T01:37:02;99611.81;;;8.74;97.01
45523;BME280;31254;51.680;5.394;2022-11-23T01:39:31;99629.69;;;8.85;96.68
45523;BME280;31254;51.680;5.394;2022-11-23T01:42:00;99617.63;;;8.80;96.63
45523;BME280;31254;51.680;5.394;2022-11-23T01:44:32;99630.19;;;8.89;96.37
45523;BME280;31254;51.680;5.394;2022-11-23T01:47:04;99632.06;;;8.88;96.42
45523;BME280;31254;51.680;5.394;2022-11-23T01:49:37;99638.19;;;8.90;96.48
45523;BME280;31254;51.680;5.394;2022-11-23T01:52:17;99632.56;;;8.84;96.33
45523;BME280;31254;51.680;5.394;2022-11-23T01:54:52;99645.84;;;8.95;96.00
45523;BME280;31254;51.680;5.394;2022-11-23T01:57:30;99638.03;;;8.92;95.79
45523;BME280;31254;51.680;5.394;2022-11-23T01:59:57;99628.19;;;8.91;95.92
45523;BME280;31254;51.680;5.394;2022-11-23T02:02:26;99629.84;;;8.92;95.75
45523;BME280;31254;51.680;5.394;2022-11-23T02:04:56;99640.75;;;8.92;96.22
45523;BME280;31254;51.680;5.394;2022-11-23T02:07:26;99648.56;;;8.95;96.01
45523;BME280;31254;51.680;5.394;2022-11-23T02:09:54;99650.28;;;8.96;95.64
45523;BME280;31254;51.680;5.394;2022-11-23T02:12:21;99654.84;;;8.95;96.03
45523;BME280;31254;51.680;5.394;2022-11-23T02:14:51;99644.47;;;8.83;96.05
45523;BME280;31254;51.680;5.394;2022-11-23T02:17:17;99658.44;;;8.88;96.05
45523;BME280;31254;51.680;5.394;2022-11-23T02:19:51;99663.53;;;8.91;96.08
45523;BME280;31254;51.680;5.394;2022-11-23T02:22:29;99629.66;;;8.69;96.37
45523;BME280;31254;51.680;5.394;2022-11-23T02:24:59;99650.78;;;8.83;96.15
45523;BME280;31254;51.680;5.394;2022-11-23T02:27:27;99655.00;;;8.86;96.60
45523;BME280;31254;51.680;5.394;2022-11-23T02:29:56;99651.28;;;8.87;96.05
45523;BME280;31254;51.680;5.394;2022-11-23T02:32:24;99660.09;;;8.89;95.94
45523;BME280;31254;51.680;5.394;2022-11-23T02:34:51;99654.50;;;8.90;95.91
45523;BME280;31254;51.680;5.394;2022-11-23T02:37:19;99654.50;;;8.90;95.95
45523;BME280;31254;51.680;5.394;2022-11-23T02:39:51;99651.94;;;8.89;96.03
45523;BME280;31254;51.680;5.394;2022-11-23T02:42:22;99663.53;;;8.91;95.76
45523;BME280;31254;51.680;5.394;2022-11-23T02:45:15;99658.78;;;8.93;95.53
45523;BME280;31254;51.680;5.394;2022-11-23T02:47:44;99663.00;;;8.95;96.02
45523;BME280;31254;51.680;5.394;2022-11-23T02:50:10;99650.78;;;8.91;95.97
45523;BME280;31254;51.680;5.394;2022-11-23T02:52:37;99661.84;;;8.98;95.63
45523;BME280;31254;51.680;5.394;2022-11-23T02:55:06;99665.94;;;9.02;95.58
45523;BME280;31254;51.680;5.394;2022-11-23T02:57:33;99649.56;;;8.94;95.46
45523;BME280;31254;51.680;5.394;2022-11-23T03:00:00;99667.44;;;9.05;95.88
45523;BME280;31254;51.680;5.394;2022-11-23T03:02:27;99670.34;;;9.03;95.62
45523;BME280;31254;51.680;5.394;2022-11-23T03:04:54;99669.16;;;9.06;95.56
45523;BME280;31254;51.680;5.394;2022-11-23T03:07:20;99662.16;;;9.03;95.26
45523;BME280;31254;51.680;5.394;2022-11-23T03:09:47;99669.16;;;9.06;95.64
45523;BME280;31254;51.680;5.394;2022-11-23T03:12:13;99670.00;;;9.06;95.55
45523;BME280;31254;51.680;5.394;2022-11-23T03:14:41;99671.00;;;9.05;95.39
45523;BME280;31254;51.680;5.394;2022-11-23T03:17:08;99676.81;;;9.10;95.15
45523;BME280;31254;51.680;5.394;2022-11-23T03:19:34;99678.66;;;9.10;95.03
45523;BME280;31254;51.680;5.394;2022-11-23T03:22:02;99675.94;;;9.10;95.27
45523;BME280;31254;51.680;5.394;2022-11-23T03:24:28;99676.44;;;9.05;95.52
45523;BME280;31254;51.680;5.394;2022-11-23T03:26:55;99677.66;;;9.11;95.48
45523;BME280;31254;51.680;5.394;2022-11-23T03:29:22;99685.66;;;9.12;95.00
45523;BME280;31254;51.680;5.394;2022-11-23T03:31:52;99684.09;;;9.10;95.01
45523;BME280;31254;51.680;5.394;2022-11-23T03:34:22;99679.53;;;9.02;95.09
45523;BME280;31254;51.680;5.394;2022-11-23T03:36:49;99684.09;;;9.10;95.15
45523;BME280;31254;51.680;5.394;2022-11-23T03:39:15;99675.94;;;9.02;95.40
45523;BME280;31254;51.680;5.394;2022-11-23T03:41:42;99683.59;;;9.06;95.47
45523;BME280;31254;51.680;5.394;2022-11-23T03:44:11;99680.03;;;9.06;95.39
45523;BME280;31254;51.680;5.394;2022-11-23T03:46:39;99674.09;;;9.02;95.48
45523;BME280;31254;51.680;5.394;2022-11-23T03:49:06;99680.88;;;9.06;95.55
45523;BME280;31254;51.680;5.394;2022-11-23T03:51:32;99658.44;;;8.96;95.01
45523;BME280;31254;51.680;5.394;2022-11-23T03:54:01;99672.72;;;8.98;95.35
45523;BME280;31254;51.680;5.394;2022-11-23T03:56:28;99674.94;;;9.03;95.35
45523;BME280;31254;51.680;5.394;2022-11-23T03:58:57;99671.53;;;9.01;95.49
45523;BME280;31254;51.680;5.394;2022-11-23T04:01:24;99682.41;;;9.01;95.58
45523;BME280;31254;51.680;5.394;2022-11-23T04:03:51;99670.81;;;8.90;95.56
45523;BME280;31254;51.680;5.394;2022-11-23T04:06:17;99676.09;;;8.92;95.78
45523;BME280;31254;51.680;5.394;2022-11-23T04:08:44;99683.25;;;8.93;95.63
45523;BME280;31254;51.680;5.394;2022-11-23T04:11:13;99684.91;;;8.86;95.60
45523;BME280;31254;51.680;5.394;2022-11-23T04:13:40;99683.59;;;8.90;95.66
45523;BME280;31254;51.680;5.394;2022-11-23T04:16:07;99682.75;;;8.89;95.71
45523;BME280;31254;51.680;5.394;2022-11-23T04:18:33;99681.38;;;8.93;95.37
45523;BME280;31254;51.680;5.394;2022-11-23T04:21:00;99692.59;;;8.99;95.21
45523;BME280;31254;51.680;5.394;2022-11-23T04:23:26;99690.75;;;8.99;95.01
45523;BME280;31254;51.680;5.394;2022-11-23T04:25:53;99671.00;;;8.89;95.06
45523;BME280;31254;51.680;5.394;2022-11-23T04:28:20;99682.41;;;9.01;94.74
45523;BME280;31254;51.680;5.394;2022-11-23T04:30:46;99685.47;;;8.98;95.02
45523;BME280;31254;51.680;5.394;2022-11-23T04:33:13;99690.59;;;9.01;95.33
45523;BME280;31254;51.680;5.394;2022-11-23T04:35:39;99692.09;;;9.03;94.80
45523;BME280;31254;51.680;5.394;2022-11-23T04:38:06;99689.38;;;9.03;94.82
45523;BME280;31254;51.680;5.394;2022-11-23T04:40:35;99675.59;;;8.96;94.95
45523;BME280;31254;51.680;5.394;2022-11-23T04:43:02;99691.25;;;9.03;94.94
45523;BME280;31254;51.680;5.394;2022-11-23T04:45:29;99676.97;;;9.01;95.01
45523;BME280;31254;51.680;5.394;2022-11-23T04:47:55;99684.28;;;9.00;94.74
45523;BME280;31254;51.680;5.394;2022-11-23T04:50:22;99690.06;;;9.05;95.04
45523;BME280;31254;51.680;5.394;2022-11-23T04:52:51;99688.03;;;8.99;94.74
45523;BME280;31254;51.680;5.394;2022-11-23T04:55:20;99688.38;;;9.04;94.88
45523;BME280;31254;51.680;5.394;2022-11-23T04:57:47;99677.16;;;8.99;94.54
45523;BME280;31254;51.680;5.394;2022-11-23T05:00:14;99686.66;;;9.03;94.48
45523;BME280;31254;51.680;5.394;2022-11-23T05:02:41;99675.25;;;9.00;94.56
45523;BME280;31254;51.680;5.394;2022-11-23T05:05:08;99668.81;;;9.01;94.76
45523;BME280;31254;51.680;5.394;2022-11-23T05:07:34;99677.81;;;9.01;94.37
45523;BME280;31254;51.680;5.394;2022-11-23T05:10:03;99675.09;;;9.01;94.77
45523;BME280;31254;51.680;5.394;2022-11-23T05:12:30;99669.66;;;9.01;94.75
45523;BME280;31254;51.680;5.394;2022-11-23T05:15:02;99684.09;;;9.02;94.47
45523;BME280;31254;51.680;5.394;2022-11-23T05:17:29;99678.16;;;8.98;94.97
45523;BME280;31254;51.680;5.394;2022-11-23T05:19:58;99661.66;;;8.91;94.49
45523;BME280;31254;51.680;5.394;2022-11-23T05:22:27;99679.69;;;9.01;94.18
45523;BME280;31254;51.680;5.394;2022-11-23T05:24:54;99676.09;;;9.00;94.06
45523;BME280;31254;51.680;5.394;2022-11-23T05:27:20;99675.59;;;8.96;94.11
45523;BME280;31254;51.680;5.394;2022-11-23T05:29:47;99672.53;;;8.91;94.42
45523;BME280;31254;51.680;5.394;2022-11-23T05:32:14;99683.09;;;8.94;94.48
45523;BME280;31254;51.680;5.394;2022-11-23T05:34:43;99675.44;;;8.90;94.12
45523;BME280;31254;51.680;5.394;2022-11-23T05:37:13;99688.00;;;8.91;94.47
45523;BME280;31254;51.680;5.394;2022-11-23T05:39:42;99681.03;;;8.88;93.95
45523;BME280;31254;51.680;5.394;2022-11-23T05:42:08;99678.63;;;8.85;94.23
45523;BME280;31254;51.680;5.394;2022-11-23T05:44:35;99680.19;;;8.88;94.26
45523;BME280;31254;51.680;5.394;2022-11-23T05:47:04;99677.63;;;8.86;94.22
45523;BME280;31254;51.680;5.394;2022-11-23T05:49:30;99680.53;;;8.85;93.87
45523;BME280;31254;51.680;5.394;2022-11-23T05:51:57;99678.28;;;8.80;93.70
45523;BME280;31254;51.680;5.394;2022-11-23T05:54:24;99685.41;;;8.81;94.03
45523;BME280;31254;51.680;5.394;2022-11-23T05:56:52;99679.97;;;8.81;93.38
45523;BME280;31254;51.680;5.394;2022-11-23T05:59:18;99682.19;;;8.77;93.99
45523;BME280;31254;51.680;5.394;2022-11-23T06:01:45;99696.84;;;8.85;93.71
45523;BME280;31254;51.680;5.394;2022-11-23T06:04:11;99690.53;;;8.84;93.48
45523;BME280;31254;51.680;5.394;2022-11-23T06:06:38;99689.69;;;8.84;93.73
45523;BME280;31254;51.680;5.394;2022-11-23T06:09:05;99685.25;;;8.83;93.34
45523;BME280;31254;51.680;5.394;2022-11-23T06:11:31;99676.59;;;8.79;93.09
45523;BME280;31254;51.680;5.394;2022-11-23T06:13:58;99691.91;;;8.80;92.94
45523;BME280;31254;51.680;5.394;2022-11-23T06:16:25;99700.06;;;8.80;93.57
45523;BME280;31254;51.680;5.394;2022-11-23T06:18:54;99691.06;;;8.80;93.54
45523;BME280;31254;51.680;5.394;2022-11-23T06:21:20;99690.19;;;8.79;93.23
45523;BME280;31254;51.680;5.394;2022-11-23T06:23:47;99690.50;;;8.76;93.37
45523;BME280;31254;51.680;5.394;2022-11-23T06:26:14;99683.56;;;8.73;92.88
45523;BME280;31254;51.680;5.394;2022-11-23T06:28:40;99694.28;;;8.75;93.14
45523;BME280;31254;51.680;5.394;2022-11-23T06:31:08;99690.69;;;8.74;93.52
45523;BME280;31254;51.680;5.394;2022-11-23T06:33:35;99696.28;;;8.73;93.15
45523;BME280;31254;51.680;5.394;2022-11-23T06:36:02;99704.09;;;8.76;93.13
45523;BME280;31254;51.680;5.394;2022-11-23T06:38:29;99692.22;;;8.69;92.96
45523;BME280;31254;51.680;5.394;2022-11-23T06:40:59;99689.50;;;8.69;92.93
45523;BME280;31254;51.680;5.394;2022-11-23T06:43:27;99676.56;;;8.63;93.33
45523;BME280;31254;51.680;5.394;2022-11-23T06:45:54;99700.72;;;8.74;93.20
45523;BME280;31254;51.680;5.394;2022-11-23T06:48:21;99682.16;;;8.61;93.10
45523;BME280;31254;51.680;5.394;2022-11-23T06:50:48;99705.44;;;8.64;93.01
45523;BME280;31254;51.680;5.394;2022-11-23T06:53:14;99699.81;;;8.57;93.47
45523;BME280;31254;51.680;5.394;2022-11-23T06:55:46;99719.03;;;8.64;93.17
45523;BME280;31254;51.680;5.394;2022-11-23T06:58:15;99728.72;;;8.66;92.98
45523;BME280;31254;51.680;5.394;2022-11-23T07:00:41;99717.84;;;8.66;92.82
45523;BME280;31254;51.680;5.394;2022-11-23T07:03:19;99719.56;;;8.67;92.86
45523;BME280;31254;51.680;5.394;2022-11-23T07:05:46;99726.16;;;8.65;92.51
45523;BME280;31254;51.680;5.394;2022-11-23T07:08:15;99724.47;;;8.64;92.89
45523;BME280;31254;51.680;5.394;2022-11-23T07:11:00;99736.88;;;8.66;92.63
45523;BME280;31254;51.680;5.394;2022-11-23T07:13:30;99743.19;;;8.67;92.96
45523;BME280;31254;51.680;5.394;2022-11-23T07:16:04;99738.75;;;8.66;93.14
45523;BME280;31254;51.680;5.394;2022-11-23T07:18:43;99741.63;;;8.64;93.03
45523;BME280;31254;51.680;5.394;2022-11-23T07:21:14;99735.84;;;8.59;92.73
45523;BME280;31254;51.680;5.394;2022-11-23T07:23:40;99747.41;;;8.61;93.19
45523;BME280;31254;51.680;5.394;2022-11-23T07:26:07;99761.69;;;8.63;93.17
45523;BME280;31254;51.680;5.394;2022-11-23T07:28:34;99740.53;;;8.49;92.58
45523;BME280;31254;51.680;5.394;2022-11-23T07:31:01;99755.56;;;8.61;93.06
45523;BME280;31254;51.680;5.394;2022-11-23T07:33:30;99751.13;;;8.60;92.88
45523;BME280;31254;51.680;5.394;2022-11-23T07:36:00;99747.41;;;8.61;92.34
45523;BME280;31254;51.680;5.394;2022-11-23T07:38:28;99754.75;;;8.69;92.54
45523;BME280;31254;51.680;5.394;2022-11-23T07:40:57;99758.50;;;8.76;92.03
45523;BME280;31254;51.680;5.394;2022-11-23T07:43:26;99767.53;;;8.76;92.16
45523;BME280;31254;51.680;5.394;2022-11-23T07:45:54;99770.56;;;8.73;92.17
45523;BME280;31254;51.680;5.394;2022-11-23T07:48:22;99772.97;;;8.76;92.04
45523;BME280;31254;51.680;5.394;2022-11-23T07:50:52;99777.22;;;8.87;91.89
45523;BME280;31254;51.680;5.394;2022-11-23T07:53:19;99781.53;;;8.98;91.09
45523;BME280;31254;51.680;5.394;2022-11-23T07:55:46;99787.16;;;9.05;91.18
45523;BME280;31254;51.680;5.394;2022-11-23T07:58:13;99785.09;;;9.07;90.70
45523;BME280;31254;51.680;5.394;2022-11-23T08:00:39;99774.56;;;9.04;90.96
45523;BME280;31254;51.680;5.394;2022-11-23T08:03:10;99791.06;;;9.02;91.07
45523;BME280;31254;51.680;5.394;2022-11-23T08:05:53;99782.19;;;8.92;91.77
45523;BME280;31254;51.680;5.394;2022-11-23T08:08:19;99789.47;;;8.83;91.84
45523;BME280;31254;51.680;5.394;2022-11-23T08:10:46;99795.03;;;8.73;91.88
45523;BME280;31254;51.680;5.394;2022-11-23T08:13:19;99786.53;;;8.68;91.71
45523;BME280;31254;51.680;5.394;2022-11-23T08:15:49;99797.41;;;8.68;91.80
45523;BME280;31254;51.680;5.394;2022-11-23T08:18:22;99798.56;;;8.66;91.66
45523;BME280;31254;51.680;5.394;2022-11-23T08:20:52;99797.88;;;8.64;91.54
45523;BME280;31254;51.680;5.394;2022-11-23T08:23:24;99805.34;;;8.62;91.78
45523;BME280;31254;51.680;5.394;2022-11-23T08:25:53;99802.09;;;8.58;91.41
45523;BME280;31254;51.680;5.394;2022-11-23T08:28:22;99803.28;;;8.55;91.62
45523;BME280;31254;51.680;5.394;2022-11-23T08:31:04;99800.72;;;8.54;91.47
45523;BME280;31254;51.680;5.394;2022-11-23T08:33:33;99794.75;;;8.50;91.78
45523;BME280;31254;51.680;5.394;2022-11-23T08:36:05;99800.34;;;8.49;91.43
45523;BME280;31254;51.680;5.394;2022-11-23T08:38:39;99792.19;;;8.49;91.20
45523;BME280;31254;51.680;5.394;2022-11-23T08:41:23;99803.94;;;8.49;91.09
45523;BME280;31254;51.680;5.394;2022-11-23T08:43:50;99801.38;;;8.48;91.41
45523;BME280;31254;51.680;5.394;2022-11-23T08:46:35;99796.63;;;8.50;91.10
45523;BME280;31254;51.680;5.394;2022-11-23T08:49:07;99793.06;;;8.49;91.23
45523;BME280;31254;51.680;5.394;2022-11-23T08:51:36;99799.34;;;8.50;91.36
45523;BME280;31254;51.680;5.394;2022-11-23T08:54:12;99794.06;;;8.48;90.90
45523;BME280;31254;51.680;5.394;2022-11-23T08:57:03;99782.34;;;8.48;90.67
45523;BME280;31254;51.680;5.394;2022-11-23T08:59:34;99781.31;;;8.49;90.72
45523;BME280;31254;51.680;5.394;2022-11-23T09:02:03;99788.47;;;8.50;90.83
45523;BME280;31254;51.680;5.394;2022-11-23T09:04:35;99785.06;;;8.48;90.44
45523;BME280;31254;51.680;5.394;2022-11-23T09:07:06;99788.47;;;8.50;90.78
45523;BME280;31254;51.680;5.394;2022-11-23T09:09:35;99789.16;;;8.52;90.46
45523;BME280;31254;51.680;5.394;2022-11-23T09:12:04;99796.97;;;8.55;90.47
45523;BME280;31254;51.680;5.394;2022-11-23T09:14:35;99795.66;;;8.59;90.04
45523;BME280;31254;51.680;5.394;2022-11-23T09:17:03;99788.91;;;8.71;90.00
45523;BME280;31254;51.680;5.394;2022-11-23T09:19:38;99788.28;;;8.94;88.56
45523;BME280;31254;51.680;5.394;2022-11-23T09:22:10;99787.84;;;9.15;88.09
45523;BME280;31254;51.680;5.394;2022-11-23T09:24:38;99774.09;;;9.25;87.07
45523;BME280;31254;51.680;5.394;2022-11-23T09:27:05;99767.31;;;9.37;86.88
45523;BME280;31254;51.680;5.394;2022-11-23T09:29:31;99774.47;;;9.46;86.35
45523;BME280;31254;51.680;5.394;2022-11-23T09:32:03;99760.69;;;9.48;86.44
45523;BME280;31254;51.680;5.394;2022-11-23T09:34:29;99765.63;;;9.52;85.71
45523;BME280;31254;51.680;5.394;2022-11-23T09:36:56;99770.53;;;9.57;85.80
45523;BME280;31254;51.680;5.394;2022-11-23T09:39:23;99760.69;;;9.64;85.93
45523;BME280;31254;51.680;5.394;2022-11-23T09:44:33;99752.69;;;9.71;85.54
45523;BME280;31254;51.680;5.394;2022-11-23T09:47:36;99753.34;;;9.73;85.35
45523;BME280;31254;51.680;5.394;2022-11-23T09:52:34;99739.06;;;9.79;85.23
45523;BME280;31254;51.680;5.394;2022-11-23T09:55:28;99729.19;;;9.78;85.10
45523;BME280;31254;51.680;5.394;2022-11-23T09:58:02;99732.94;;;9.77;85.30
45523;BME280;31254;51.680;5.394;2022-11-23T10:00:37;99728.66;;;9.83;84.91
45523;BME280;31254;51.680;5.394;2022-11-23T10:03:13;99729.53;;;9.83;84.83
45523;BME280;31254;51.680;5.394;2022-11-23T10:05:46;99728.81;;;9.89;84.93
45523;BME280;31254;51.680;5.394;2022-11-23T10:11:30;99725.41;;;9.96;84.62
45523;BME280;31254;51.680;5.394;2022-11-23T10:17:08;99719.78;;;10.05;84.72
45523;BME280;31254;51.680;5.394;2022-11-23T10:22:57;99707.00;;;10.14;84.37
45523;BME280;31254;51.680;5.394;2022-11-23T10:25:28;99698.13;;;10.12;83.98
45523;BME280;31254;51.680;5.394;2022-11-23T10:28:15;99724.00;;;10.24;83.44
45523;BME280;31254;51.680;5.394;2022-11-23T10:30:50;99711.03;;;10.27;83.36
45523;BME280;31254;51.680;5.394;2022-11-23T10:33:39;99703.03;;;10.25;83.32
45523;BME280;31254;51.680;5.394;2022-11-23T10:36:12;99710.81;;;10.45;83.26
45523;BME280;31254;51.680;5.394;2022-11-23T10:38:42;99716.97;;;10.47;83.04
45523;BME280;31254;51.680;5.394;2022-11-23T10:41:12;99717.94;;;10.54;82.92
45523;BME280;31254;51.680;5.394;2022-11-23T10:44:06;99712.28;;;10.64;82.83
45523;BME280;31254;51.680;5.394;2022-11-23T10:46:39;99707.13;;;10.69;82.42
45523;BME280;31254;51.680;5.394;2022-11-23T10:49:28;99714.06;;;10.79;82.26
45523;BME280;31254;51.680;5.394;2022-11-23T10:52:02;99710.47;;;10.87;81.97
45523;BME280;31254;51.680;5.394;2022-11-23T10:54:37;99699.72;;;10.86;81.74
45523;BME280;31254;51.680;5.394;2022-11-23T10:57:30;99699.00;;;10.92;82.00
45523;BME280;31254;51.680;5.394;2022-11-23T11:00:19;99691.78;;;10.99;81.68
45523;BME280;31254;51.680;5.394;2022-11-23T11:02:53;99685.47;;;10.98;81.30
45523;BME280;31254;51.680;5.394;2022-11-23T11:08:19;99683.94;;;11.19;80.29
45523;BME280;31254;51.680;5.394;2022-11-23T11:13:29;99684.19;;;11.56;79.22
45523;BME280;31254;51.680;5.394;2022-11-23T11:16:05;99682.97;;;11.58;79.13
45523;BME280;31254;51.680;5.394;2022-11-23T11:18:34;99673.34;;;11.62;78.67
45523;BME280;31254;51.680;5.394;2022-11-23T11:21:06;99657.81;;;11.63;78.43
45523;BME280;31254;51.680;5.394;2022-11-23T11:23:37;99669.53;;;11.71;78.67
45523;BME280;31254;51.680;5.394;2022-11-23T11:26:09;99657.53;;;11.73;78.50
45523;BME280;31254;51.680;5.394;2022-11-23T11:28:47;99662.53;;;11.84;78.58
45523;BME280;31254;51.680;5.394;2022-11-23T11:34:22;99662.34;;;11.85;78.39
45523;BME280;31254;51.680;5.394;2022-11-23T11:37:06;99647.31;;;11.89;78.21
45523;BME280;31254;51.680;5.394;2022-11-23T11:39:48;99641.38;;;11.86;78.22
45523;BME280;31254;51.680;5.394;2022-11-23T11:42:28;99652.75;;;11.89;78.00
45523;BME280;31254;51.680;5.394;2022-11-23T11:45:00;99631.94;;;11.88;78.17
45523;BME280;31254;51.680;5.394;2022-11-23T11:47:44;99634.13;;;11.93;78.21
45523;BME280;31254;51.680;5.394;2022-11-23T11:50:37;99623.44;;;11.83;78.50
45523;BME280;31254;51.680;5.394;2022-11-23T11:53:12;99621.00;;;11.88;77.92
45523;BME280;31254;51.680;5.394;2022-11-23T11:55:47;99614.81;;;11.95;77.98
45523;BME280;31254;51.680;5.394;2022-11-23T11:58:16;99614.69;;;11.88;77.92
45523;BME280;31254;51.680;5.394;2022-11-23T12:00:46;99600.19;;;11.87;77.59
45523;BME280;31254;51.680;5.394;2022-11-23T12:03:26;99601.03;;;11.88;77.73
45523;BME280;31254;51.680;5.394;2022-11-23T12:06:09;99609.78;;;11.83;77.72
45523;BME280;31254;51.680;5.394;2022-11-23T12:08:46;99603.31;;;11.84;77.82
45523;BME280;31254;51.680;5.394;2022-11-23T12:11:17;99595.19;;;11.91;73.15
45523;BME280;31254;51.680;5.394;2022-11-23T12:13:45;99593.13;;;11.93;75.13
45523;BME280;31254;51.680;5.394;2022-11-23T12:23:51;99602.84;;;12.11;75.83
45523;BME280;31254;51.680;5.394;2022-11-23T12:26:36;99603.00;;;12.24;71.92
45523;BME280;31254;51.680;5.394;2022-11-23T12:42:49;99577.66;;;12.15;74.70
45523;BME280;31254;51.680;5.394;2022-11-23T12:45:53;99578.81;;;12.06;75.20
45523;BME280;31254;51.680;5.394;2022-11-23T12:59:10;99578.72;;;11.84;75.51
45523;BME280;31254;51.680;5.394;2022-11-23T13:01:47;99569.44;;;11.85;75.36
45523;BME280;31254;51.680;5.394;2022-11-23T13:07:47;99552.13;;;12.08;74.79
45523;BME280;31254;51.680;5.394;2022-11-23T13:21:44;99583.50;;;12.27;72.73
45523;BME280;31254;51.680;5.394;2022-11-23T13:24:36;99572.47;;;12.20;73.00
45523;BME280;31254;51.680;5.394;2022-11-23T13:40:31;99607.91;;;11.84;73.59
45523;BME280;31254;51.680;5.394;2022-11-23T13:45:39;99617.72;;;11.78;74.02
45523;BME280;31254;51.680;5.394;2022-11-23T13:50:56;99616.28;;;11.67;74.70
45523;BME280;31254;51.680;5.394;2022-11-23T13:53:30;99620.44;;;11.63;74.97
45523;BME280;31254;51.680;5.394;2022-11-23T13:56:35;99630.75;;;11.53;75.56
45523;BME280;31254;51.680;5.394;2022-11-23T14:04:39;99632.03;;;11.27;77.52
45523;BME280;31254;51.680;5.394;2022-11-23T14:09:51;99635.88;;;11.18;78.11
45523;BME280;31254;51.680;5.394;2022-11-23T14:20:54;99652.44;;;10.93;79.13
45523;BME280;31254;51.680;5.394;2022-11-23T14:32:02;99670.78;;;11.00;81.08
45523;BME280;31254;51.680;5.394;2022-11-23T14:37:23;99682.69;;;10.84;81.41
45523;BME280;31254;51.680;5.394;2022-11-23T14:42:27;99688.03;;;10.69;81.66
45523;BME280;31254;51.680;5.394;2022-11-23T14:44:59;99678.56;;;10.56;82.04
45523;BME280;31254;51.680;5.394;2022-11-23T14:47:30;99700.38;;;10.56;82.01
45523;BME280;31254;51.680;5.394;2022-11-23T14:49:59;99697.19;;;10.53;82.11
45523;BME280;31254;51.680;5.394;2022-11-23T14:52:28;99698.91;;;10.46;82.39
45523;BME280;31254;51.680;5.394;2022-11-23T14:54:58;99703.50;;;10.45;82.54
45523;BME280;31254;51.680;5.394;2022-11-23T14:57:39;99693.88;;;10.57;83.90
45523;BME280;31254;51.680;5.394;2022-11-23T15:00:27;99706.41;;;10.43;83.52
45523;BME280;31254;51.680;5.394;2022-11-23T15:02:59;99699.41;;;10.41;83.74
45523;BME280;31254;51.680;5.394;2022-11-23T15:05:59;99684.28;;;10.70;83.87
45523;BME280;31254;51.680;5.394;2022-11-23T15:08:32;99700.44;;;10.48;84.22
45523;BME280;31254;51.680;5.394;2022-11-23T15:11:20;99713.94;;;10.41;84.00
45523;BME280;31254;51.680;5.394;2022-11-23T15:13:50;99704.06;;;10.32;84.53
45523;BME280;31254;51.680;5.394;2022-11-23T15:16:19;99706.78;;;10.32;84.25
45523;BME280;31254;51.680;5.394;2022-11-23T15:18:49;99688.22;;;10.19;84.23
45523;BME280;31254;51.680;5.394;2022-11-23T15:21:18;99709.84;;;10.29;84.83
45523;BME280;31254;51.680;5.394;2022-11-23T15:23:54;99704.75;;;10.66;85.29
45523;BME280;31254;51.680;5.394;2022-11-23T15:26:23;99701.47;;;10.39;85.85